createdAt,value
2019-01-12T00:02:07.821Z,10.33
2019-01-12T00:06:10.251Z,9.27
2019-01-12T00:10:12.670Z,9.57
2019-01-12T00:14:14.988Z,8.60
2019-01-12T00:18:17.321Z,8.70
2019-01-12T00:22:19.646Z,8.00
2019-01-12T00:26:21.966Z,7.07
2019-01-12T00:30:24.289Z,7.90
2019-01-12T00:34:26.598Z,7.07
2019-01-12T00:38:28.890Z,6.63
2019-01-12T00:42:31.143Z,6.10
2019-01-12T00:46:33.522Z,6.03
2019-01-12T00:50:35.851Z,6.03
2019-01-12T00:54:38.655Z,5.03
2019-01-12T00:58:40.539Z,5.40
2019-01-12T01:02:42.936Z,5.17
2019-01-12T01:06:45.315Z,4.57
2019-01-12T01:10:47.684Z,4.30
2019-01-12T01:14:50.075Z,4.93
2019-01-12T01:18:52.374Z,4.80
2019-01-12T01:22:54.760Z,6.23
2019-01-12T01:26:57.244Z,5.33
2019-01-12T01:30:59.648Z,5.43
2019-01-12T01:35:02.007Z,5.57
2019-01-12T01:39:07.534Z,5.40
2019-01-12T01:43:09.899Z,6.00
2019-01-12T01:47:12.262Z,5.33
2019-01-12T01:51:14.583Z,6.30
2019-01-12T01:55:16.927Z,6.67
2019-01-12T01:59:19.189Z,8.40
2019-01-12T02:03:21.551Z,8.13
2019-01-12T02:07:23.914Z,9.20
2019-01-12T02:11:26.243Z,8.20
2019-01-12T02:15:28.560Z,9.33
2019-01-12T02:19:30.855Z,10.33
2019-01-12T02:23:33.197Z,8.10
2019-01-12T02:27:35.640Z,8.10
2019-01-12T02:31:37.999Z,8.97
2019-01-12T02:35:40.606Z,7.07
2019-01-12T02:39:42.925Z,7.63
2019-01-12T02:43:45.217Z,7.73
2019-01-12T02:47:47.574Z,7.60
2019-01-12T02:51:49.934Z,7.57
2019-01-12T02:55:52.223Z,9.17
2019-01-12T02:59:54.526Z,8.33
2019-01-12T03:03:56.823Z,8.97
2019-01-12T03:07:59.137Z,8.33
2019-01-12T03:12:01.423Z,8.23
2019-01-12T03:16:03.899Z,8.27
2019-01-12T03:20:08.404Z,8.43
2019-01-12T03:24:10.757Z,9.40
2019-01-12T03:28:13.065Z,10.17
2019-01-12T03:32:15.391Z,9.87
2019-01-12T03:36:17.747Z,9.17
2019-01-12T03:40:20.658Z,10.13
2019-01-12T03:44:23.004Z,9.23
2019-01-12T03:48:25.376Z,8.57
2019-01-12T03:52:27.679Z,9.03
2019-01-12T03:56:30.018Z,7.97
2019-01-12T04:00:32.296Z,6.77
2019-01-12T04:04:34.618Z,7.07
2019-01-12T04:08:36.967Z,5.80
2019-01-12T04:12:39.321Z,6.40
2019-01-12T04:16:41.606Z,6.67
2019-01-12T04:20:43.986Z,4.90
2019-01-12T04:24:46.335Z,4.07
2019-01-12T04:28:48.639Z,4.70
2019-01-12T04:32:50.987Z,3.70
2019-01-12T04:36:53.307Z,4.80
2019-01-12T04:40:55.696Z,4.30
2019-01-12T04:44:58.001Z,3.33
2019-01-12T04:49:00.386Z,3.03
2019-01-12T04:53:02.794Z,3.63
2019-01-12T04:57:05.203Z,3.37
2019-01-12T05:01:07.572Z,3.30
2019-01-12T05:05:10.042Z,3.27
2019-01-12T05:09:12.405Z,4.07
2019-01-12T05:13:14.778Z,5.97
2019-01-12T05:17:17.142Z,6.47
2019-01-12T05:21:19.423Z,7.60
2019-01-12T05:25:21.796Z,7.97
2019-01-12T05:29:24.112Z,7.97
2019-01-12T05:33:26.382Z,8.63
2019-01-12T05:37:28.665Z,8.07
2019-01-12T05:41:30.927Z,7.73
2019-01-12T05:45:33.216Z,8.70
2019-01-12T05:49:35.551Z,8.93
2019-01-12T05:53:37.847Z,8.87
2019-01-12T05:57:40.221Z,6.70
2019-01-12T06:01:42.545Z,6.73
2019-01-12T06:05:44.961Z,7.47
2019-01-12T06:09:47.411Z,6.83
2019-01-12T06:13:49.806Z,6.13
2019-01-12T06:17:52.186Z,3.57
2019-01-12T06:21:54.521Z,4.40
2019-01-12T06:26:03.687Z,3.90
2019-01-12T06:29:59.191Z,3.53
2019-01-12T06:34:01.611Z,2.50
2019-01-12T06:38:03.979Z,2.47
2019-01-12T06:42:06.352Z,2.33
2019-01-12T06:46:08.791Z,3.17
2019-01-12T06:50:12.186Z,4.00
2019-01-12T06:54:14.604Z,3.63
2019-01-12T06:58:17.061Z,4.17
2019-01-12T07:02:19.570Z,4.57
2019-01-12T07:06:22.142Z,6.00
2019-01-12T07:10:24.626Z,6.23
2019-01-12T07:14:26.928Z,6.30
2019-01-12T07:18:29.309Z,6.50
2019-01-12T07:22:38.389Z,7.03
2019-01-12T07:26:40.751Z,6.03
2019-01-12T07:30:43.122Z,6.43
2019-01-12T07:34:45.408Z,6.13
2019-01-12T07:38:47.768Z,7.53
2019-01-12T07:42:50.122Z,7.10
2019-01-12T07:46:52.450Z,7.93
2019-01-12T07:50:54.795Z,6.73
2019-01-12T07:54:57.179Z,3.77
2019-01-12T07:58:59.529Z,4.87
2019-01-12T08:03:01.931Z,4.40
2019-01-12T08:07:04.311Z,3.03
2019-01-12T08:11:06.702Z,3.53
2019-01-12T08:15:09.152Z,2.90
2019-01-12T08:19:11.451Z,4.37
2019-01-12T08:23:13.796Z,5.20
2019-01-12T08:27:16.175Z,4.10
2019-01-12T08:31:18.585Z,4.40
2019-01-12T08:35:20.938Z,4.33
2019-01-12T08:39:23.339Z,4.77
2019-01-12T08:43:25.740Z,5.73
2019-01-12T08:47:28.086Z,5.43
2019-01-12T08:51:30.496Z,5.00
2019-01-12T08:55:32.825Z,5.37
2019-01-12T08:59:35.122Z,6.00
2019-01-12T09:03:37.479Z,5.17
2019-01-12T09:07:39.831Z,5.53
2019-01-12T09:11:42.194Z,5.40
2019-01-12T09:15:44.548Z,5.43
2019-01-12T09:19:46.879Z,5.90
2019-01-12T09:23:49.175Z,10.03
2019-01-12T09:27:51.700Z,9.93
2019-01-12T09:31:54.060Z,8.63
2019-01-12T09:35:56.393Z,5.90
2019-01-12T09:39:58.762Z,5.60
2019-01-12T09:44:01.109Z,5.47
2019-01-12T09:48:03.535Z,4.63
2019-01-12T09:52:05.928Z,5.93
2019-01-12T09:56:08.251Z,5.40
2019-01-12T10:00:14.451Z,5.37
2019-01-12T10:04:16.807Z,5.07
2019-01-12T10:08:19.109Z,6.37
2019-01-12T10:12:21.501Z,7.37
2019-01-12T10:16:23.864Z,7.40
2019-01-12T10:20:26.214Z,8.20
2019-01-12T10:24:28.568Z,8.80
2019-01-12T10:28:30.893Z,10.83
2019-01-12T10:32:33.189Z,9.17
2019-01-12T10:36:35.534Z,11.23
2019-01-12T10:40:37.919Z,11.07
2019-01-12T10:44:40.249Z,11.43
2019-01-12T10:48:42.559Z,11.83
2019-01-12T10:52:44.965Z,11.10
2019-01-12T10:56:47.308Z,11.70
2019-01-12T11:00:49.716Z,11.87
2019-01-12T11:04:52.083Z,13.57
2019-01-12T11:08:54.409Z,21.37
2019-01-12T11:12:56.808Z,12.63
2019-01-12T11:16:59.103Z,13.13
2019-01-12T11:21:01.495Z,12.77
2019-01-12T11:25:05.026Z,13.53
2019-01-12T11:29:07.365Z,13.63
2019-01-12T11:33:09.768Z,16.17
2019-01-12T11:37:12.219Z,15.83
2019-01-12T11:41:14.578Z,16.00
2019-01-12T11:45:17.118Z,17.53
2019-01-12T11:49:19.437Z,17.97
2019-01-12T11:53:21.827Z,17.83
2019-01-12T11:57:24.216Z,17.17
2019-01-12T12:01:26.493Z,20.30
2019-01-12T12:05:28.878Z,18.30
2019-01-12T12:09:31.214Z,21.67
2019-01-12T12:13:33.593Z,20.23
2019-01-12T12:17:35.938Z,17.97
2019-01-12T12:21:38.272Z,19.13
2019-01-12T12:25:40.623Z,20.80
2019-01-12T12:29:43.532Z,19.93
2019-01-12T12:33:46.360Z,19.77
2019-01-12T12:37:48.831Z,18.60
2019-01-12T12:41:51.172Z,22.20
2019-01-12T12:45:53.557Z,19.53
2019-01-12T12:49:56.599Z,17.93
2019-01-12T12:53:58.918Z,18.87
2019-01-12T12:58:01.603Z,19.17
2019-01-12T13:02:12.657Z,16.47
2019-01-12T13:06:15.061Z,18.27
2019-01-12T13:10:20.944Z,18.50
2019-01-12T13:14:23.334Z,17.10
2019-01-12T13:18:25.670Z,16.33
2019-01-12T13:22:28.033Z,17.43
2019-01-12T13:26:30.541Z,19.07
2019-01-12T13:30:32.905Z,18.77
2019-01-12T13:34:35.962Z,27.33
2019-01-12T13:38:38.803Z,19.13
2019-01-12T13:42:41.160Z,15.00
2019-01-12T13:46:43.708Z,15.63
2019-01-12T13:50:49.583Z,13.93
2019-01-12T13:54:53.002Z,12.83
2019-01-12T13:58:54.989Z,17.77
2019-01-12T14:02:59.026Z,15.57
2019-01-12T14:07:01.359Z,16.53
2019-01-12T14:11:03.829Z,14.93
2019-01-12T14:15:08.396Z,15.70
2019-01-12T14:19:12.494Z,16.17
2019-01-12T14:23:16.687Z,17.37
2019-01-12T14:27:19.088Z,15.93
2019-01-12T14:31:23.567Z,16.17
2019-01-12T14:35:25.913Z,14.10
2019-01-12T14:39:28.253Z,14.03
2019-01-12T14:43:30.623Z,15.17
2019-01-12T14:47:32.996Z,13.97
2019-01-12T14:51:35.356Z,15.67
2019-01-12T14:55:43.688Z,14.23
2019-01-12T14:59:46.680Z,17.70
2019-01-12T15:03:49.961Z,14.47
2019-01-12T15:07:52.367Z,14.17
2019-01-12T15:11:54.791Z,12.50
2019-01-12T15:15:57.107Z,12.97
2019-01-12T15:19:59.458Z,12.23
2019-01-12T15:24:01.877Z,12.23
2019-01-12T15:28:08.987Z,12.27
2019-01-12T15:32:06.813Z,12.90
2019-01-12T15:36:09.670Z,11.70
2019-01-12T15:40:13.236Z,14.13
2019-01-12T15:44:16.446Z,14.00
2019-01-12T15:48:18.840Z,14.20
2019-01-12T15:52:21.420Z,15.50
2019-01-12T15:56:24.131Z,12.57
2019-01-12T16:00:28.330Z,14.30
2019-01-12T16:04:30.704Z,12.93
2019-01-12T16:08:33.687Z,11.27
2019-01-12T16:12:36.086Z,12.17
2019-01-12T16:16:38.489Z,9.83
2019-01-12T16:20:41.682Z,9.23
2019-01-12T16:24:44.030Z,9.60
2019-01-12T16:28:46.421Z,9.03
2019-01-12T16:32:48.966Z,9.77
2019-01-12T16:36:51.878Z,9.00
2019-01-12T16:40:54.240Z,6.73
2019-01-12T16:44:56.612Z,6.40
2019-01-12T16:48:59.046Z,10.80
2019-01-12T16:53:02.475Z,7.73
2019-01-12T16:57:04.830Z,7.50
2019-01-12T17:01:07.871Z,7.07
2019-01-12T17:05:10.234Z,7.30
2019-01-12T17:09:12.596Z,7.00
2019-01-12T17:13:14.956Z,6.27
2019-01-12T17:17:17.341Z,8.03
2019-01-12T17:21:20.681Z,6.83
2019-01-12T17:25:23.157Z,5.97
2019-01-12T17:29:25.565Z,4.90
2019-01-12T17:33:27.988Z,4.20
2019-01-12T17:37:30.410Z,3.77
2019-01-12T17:41:32.753Z,3.20
2019-01-12T17:45:35.180Z,3.63
2019-01-12T17:49:37.531Z,3.30
2019-01-12T17:53:39.930Z,3.13
2019-01-12T17:57:42.318Z,4.07
2019-01-12T18:01:44.765Z,7.10
2019-01-12T18:05:47.169Z,3.03
2019-01-12T18:09:49.535Z,2.80
2019-01-12T18:13:51.894Z,10.97
2019-01-12T18:17:54.290Z,3.70
2019-01-12T18:21:56.651Z,3.33
2019-01-12T18:25:59.110Z,2.57
2019-01-12T18:30:01.565Z,2.50
2019-01-12T18:34:04.031Z,2.90
2019-01-12T18:38:06.399Z,2.90
2019-01-12T18:42:08.738Z,3.23
2019-01-12T18:46:12.237Z,3.03
2019-01-12T18:50:17.935Z,2.70
2019-01-12T18:54:20.265Z,4.47
2019-01-12T18:58:22.659Z,3.87
2019-01-12T19:02:25.029Z,3.57
2019-01-12T19:06:27.449Z,3.93
2019-01-12T19:10:29.879Z,2.93
2019-01-12T19:14:32.275Z,2.43
2019-01-12T19:18:34.664Z,2.60
2019-01-12T19:22:37.126Z,3.33
2019-01-12T19:26:39.554Z,3.83
2019-01-12T19:30:41.959Z,2.90
2019-01-12T19:34:44.305Z,4.33
2019-01-12T19:38:46.685Z,13.43
2019-01-12T19:42:49.095Z,5.50
2019-01-12T19:46:51.438Z,5.60
2019-01-12T19:50:54.281Z,5.60
2019-01-12T19:54:56.829Z,6.50
2019-01-12T19:58:59.218Z,6.23
2019-01-12T20:03:03.226Z,8.93
2019-01-12T20:07:05.873Z,13.87
2019-01-12T20:11:08.255Z,7.17
2019-01-12T20:15:13.379Z,10.50
2019-01-12T20:19:15.729Z,11.13
2019-01-12T20:23:18.124Z,13.43
2019-01-12T20:27:20.595Z,10.53
2019-01-12T20:33:37.577Z,8.73
2019-01-12T20:38:22.293Z,10.13
2019-01-12T20:42:42.934Z,10.97
2019-01-12T20:46:56.580Z,10.00
2019-01-12T20:51:19.168Z,11.23
2019-01-12T20:55:43.114Z,9.80
2019-01-12T20:59:57.908Z,9.90
2019-01-12T21:04:16.158Z,14.83
2019-01-12T21:08:29.138Z,12.63
2019-01-12T21:12:44.858Z,12.63
2019-01-12T21:16:53.320Z,12.27
2019-01-12T21:20:56.363Z,13.40
2019-01-12T21:24:58.988Z,7.60
2019-01-12T21:29:02.132Z,7.43
2019-01-12T21:33:04.758Z,5.93
2019-01-12T21:37:07.223Z,6.03
2019-01-12T21:41:09.663Z,6.70
2019-01-12T21:45:12.781Z,6.03
2019-01-12T21:49:16.304Z,5.70
2019-01-12T21:53:18.651Z,7.33
2019-01-12T21:57:21.108Z,6.70
2019-01-12T22:01:23.782Z,5.00
2019-01-12T22:05:26.599Z,5.20
2019-01-12T22:09:29.279Z,5.37
2019-01-12T22:13:32.061Z,4.87
2019-01-12T22:17:34.523Z,4.43
2019-01-12T22:21:37.657Z,5.07
2019-01-12T22:25:40.129Z,4.07
2019-01-12T22:29:49.614Z,4.50
2019-01-12T22:33:45.091Z,4.83
2019-01-12T22:37:47.430Z,4.33
2019-01-12T22:41:49.774Z,5.67
2019-01-12T22:45:52.216Z,6.73
2019-01-12T22:49:54.586Z,6.90
2019-01-12T22:53:56.988Z,7.50
2019-01-12T22:57:59.347Z,6.63
2019-01-12T23:02:03.784Z,8.13
2019-01-12T23:06:06.141Z,8.30
2019-01-12T23:10:08.908Z,7.43
2019-01-12T23:14:12.383Z,8.40
2019-01-12T23:18:14.893Z,9.27
2019-01-12T23:22:17.232Z,10.87
2019-01-12T23:26:19.623Z,10.33
2019-01-12T23:30:21.992Z,11.70
2019-01-12T23:34:24.426Z,11.03
2019-01-12T23:38:27.515Z,11.37
2019-01-12T23:42:31.616Z,11.50
2019-01-12T23:46:34.007Z,10.30
2019-01-12T23:50:36.443Z,11.23
2019-01-12T23:54:38.925Z,10.93
2019-01-12T23:58:41.925Z,10.13
